sensor_id;sensor_type;location;lat;lon;timestamp;pressure;altitude;pressure_sealevel;temperature;humidity
47636;BME280;33364;50.766;15.338;2023-03-03T00:02:22;95106.38;;;-2.04;69.14
47636;BME280;33364;50.766;15.338;2023-03-03T00:04:48;95108.81;;;-1.78;66.78
47636;BME280;33364;50.766;15.338;2023-03-03T00:07:14;95110.09;;;-1.90;65.16
47636;BME280;33364;50.766;15.338;2023-03-03T00:09:46;95102.94;;;-1.63;65.45
47636;BME280;33364;50.766;15.338;2023-03-03T00:12:20;95107.03;;;-1.94;66.89
47636;BME280;33364;50.766;15.338;2023-03-03T00:14:47;95108.81;;;-2.11;65.31
47636;BME280;33364;50.766;15.338;2023-03-03T00:17:20;95102.47;;;-1.92;71.85
47636;BME280;33364;50.766;15.338;2023-03-03T00:19:47;95108.00;;;-2.03;69.04
47636;BME280;33364;50.766;15.338;2023-03-03T00:22:25;95098.69;;;-1.64;66.45
47636;BME280;33364;50.766;15.338;2023-03-03T00:24:53;95089.13;;;-1.97;65.82
47636;BME280;33364;50.766;15.338;2023-03-03T00:27:34;95086.28;;;-1.46;71.64
47636;BME280;33364;50.766;15.338;2023-03-03T00:30:17;95094.03;;;-1.21;67.01
47636;BME280;33364;50.766;15.338;2023-03-03T00:32:44;95090.00;;;-1.24;68.41
47636;BME280;33364;50.766;15.338;2023-03-03T00:35:25;95097.38;;;-1.52;69.37
47636;BME280;33364;50.766;15.338;2023-03-03T00:37:59;95097.66;;;-1.31;67.74
47636;BME280;33364;50.766;15.338;2023-03-03T00:40:32;95094.09;;;-1.38;70.01
47636;BME280;33364;50.766;15.338;2023-03-03T00:43:01;95092.03;;;-2.08;62.54
47636;BME280;33364;50.766;15.338;2023-03-03T00:45:43;95100.00;;;-2.26;65.34
47636;BME280;33364;50.766;15.338;2023-03-03T00:50:42;95099.44;;;-3.14;65.32
47636;BME280;33364;50.766;15.338;2023-03-03T00:53:14;95097.50;;;-3.11;68.25
47636;BME280;33364;50.766;15.338;2023-03-03T00:55:42;95101.28;;;-2.98;69.77
47636;BME280;33364;50.766;15.338;2023-03-03T00:58:08;95093.06;;;-2.77;70.11
47636;BME280;33364;50.766;15.338;2023-03-03T01:00:35;95092.81;;;-2.41;66.95
47636;BME280;33364;50.766;15.338;2023-03-03T01:03:06;95087.63;;;-2.41;66.18
47636;BME280;33364;50.766;15.338;2023-03-03T01:05:32;95087.22;;;-2.79;65.49
47636;BME280;33364;50.766;15.338;2023-03-03T01:07:58;95084.31;;;-3.53;65.31
47636;BME280;33364;50.766;15.338;2023-03-03T01:10:26;95082.81;;;-3.81;67.06
47636;BME280;33364;50.766;15.338;2023-03-03T01:12:52;95075.16;;;-4.09;67.04
47636;BME280;33364;50.766;15.338;2023-03-03T01:15:19;95077.75;;;-4.09;70.73
47636;BME280;33364;50.766;15.338;2023-03-03T01:17:45;95083.56;;;-3.89;70.40
47636;BME280;33364;50.766;15.338;2023-03-03T01:20:13;95078.72;;;-3.66;72.20
47636;BME280;33364;50.766;15.338;2023-03-03T01:22:39;95074.03;;;-3.28;72.19
47636;BME280;33364;50.766;15.338;2023-03-03T01:25:05;95072.09;;;-3.60;65.37
47636;BME280;33364;50.766;15.338;2023-03-03T01:27:31;95067.25;;;-3.55;75.54
47636;BME280;33364;50.766;15.338;2023-03-03T01:29:57;95061.53;;;-2.82;74.72
47636;BME280;33364;50.766;15.338;2023-03-03T01:32:24;95055.91;;;-2.52;73.67
47636;BME280;33364;50.766;15.338;2023-03-03T01:34:50;95057.69;;;-2.53;65.54
47636;BME280;33364;50.766;15.338;2023-03-03T01:37:15;95060.81;;;-2.25;72.65
47636;BME280;33364;50.766;15.338;2023-03-03T01:39:41;95060.81;;;-2.08;71.67
47636;BME280;33364;50.766;15.338;2023-03-03T01:42:07;95057.84;;;-2.54;62.39
47636;BME280;33364;50.766;15.338;2023-03-03T01:44:33;95057.91;;;-3.05;64.37
47636;BME280;33364;50.766;15.338;2023-03-03T01:47:18;95050.06;;;-3.14;67.37
47636;BME280;33364;50.766;15.338;2023-03-03T01:49:59;95054.13;;;-3.11;65.28
47636;BME280;33364;50.766;15.338;2023-03-03T01:52:32;95055.97;;;-3.38;65.68
47636;BME280;33364;50.766;15.338;2023-03-03T01:55:03;95050.09;;;-3.05;68.14
47636;BME280;33364;50.766;15.338;2023-03-03T01:57:35;95040.78;;;-2.49;73.92
47636;BME280;33364;50.766;15.338;2023-03-03T02:00:05;95045.00;;;-2.56;73.46
47636;BME280;33364;50.766;15.338;2023-03-03T02:02:31;95048.78;;;-3.44;65.01
47636;BME280;33364;50.766;15.338;2023-03-03T02:04:57;95053.25;;;-3.28;73.51
47636;BME280;33364;50.766;15.338;2023-03-03T02:07:24;95050.53;;;-3.18;66.23
47636;BME280;33364;50.766;15.338;2023-03-03T02:10:00;95049.00;;;-2.78;68.08
47636;BME280;33364;50.766;15.338;2023-03-03T02:12:41;95045.19;;;-3.51;65.13
47636;BME280;33364;50.766;15.338;2023-03-03T02:15:22;95047.03;;;-3.96;69.65
47636;BME280;33364;50.766;15.338;2023-03-03T02:17:53;95039.97;;;-3.85;70.97
47636;BME280;33364;50.766;15.338;2023-03-03T02:23:06;95033.44;;;-3.63;70.58
47636;BME280;33364;50.766;15.338;2023-03-03T02:25:42;95026.72;;;-3.48;71.25
47636;BME280;33364;50.766;15.338;2023-03-03T02:28:09;95022.31;;;-3.05;74.86
47636;BME280;33364;50.766;15.338;2023-03-03T02:30:37;95032.50;;;-3.20;67.99
47636;BME280;33364;50.766;15.338;2023-03-03T02:33:03;95037.00;;;-3.30;67.88
47636;BME280;33364;50.766;15.338;2023-03-03T02:38:03;95033.41;;;-2.78;67.15
47636;BME280;33364;50.766;15.338;2023-03-03T02:40:35;95033.91;;;-2.83;65.91
47636;BME280;33364;50.766;15.338;2023-03-03T02:43:04;95033.50;;;-3.13;66.54
47636;BME280;33364;50.766;15.338;2023-03-03T02:45:31;95038.63;;;-3.63;66.10
47636;BME280;33364;50.766;15.338;2023-03-03T02:47:57;95030.56;;;-3.87;68.83
47636;BME280;33364;50.766;15.338;2023-03-03T02:50:23;95025.22;;;-3.51;74.22
47636;BME280;33364;50.766;15.338;2023-03-03T02:52:48;95017.91;;;-3.55;69.08
47636;BME280;33364;50.766;15.338;2023-03-03T02:55:14;95024.53;;;-3.61;68.04
47636;BME280;33364;50.766;15.338;2023-03-03T02:57:40;95013.81;;;-3.66;70.64
47636;BME280;33364;50.766;15.338;2023-03-03T03:00:06;95012.72;;;-3.81;68.05
47636;BME280;33364;50.766;15.338;2023-03-03T03:02:32;95019.50;;;-3.62;77.15
47636;BME280;33364;50.766;15.338;2023-03-03T03:04:58;95018.44;;;-3.43;70.14
47636;BME280;33364;50.766;15.338;2023-03-03T03:07:24;95020.72;;;-3.40;69.26
47636;BME280;33364;50.766;15.338;2023-03-03T03:09:50;95022.28;;;-3.56;68.27
47636;BME280;33364;50.766;15.338;2023-03-03T03:12:15;95025.00;;;-3.65;69.17
47636;BME280;33364;50.766;15.338;2023-03-03T03:14:43;95033.03;;;-3.51;68.27
47636;BME280;33364;50.766;15.338;2023-03-03T03:17:09;95023.81;;;-3.45;70.76
47636;BME280;33364;50.766;15.338;2023-03-03T03:19:37;95031.19;;;-3.16;69.00
47636;BME280;33364;50.766;15.338;2023-03-03T03:22:03;95031.44;;;-3.35;67.82
47636;BME280;33364;50.766;15.338;2023-03-03T03:24:29;95029.91;;;-3.20;74.64
47636;BME280;33364;50.766;15.338;2023-03-03T03:26:54;95031.72;;;-3.12;68.61
47636;BME280;33364;50.766;15.338;2023-03-03T03:29:20;95028.03;;;-2.85;74.90
47636;BME280;33364;50.766;15.338;2023-03-03T03:31:45;95017.38;;;-3.24;66.71
47636;BME280;33364;50.766;15.338;2023-03-03T03:34:11;95026.91;;;-2.90;68.68
47636;BME280;33364;50.766;15.338;2023-03-03T03:36:37;95018.66;;;-2.78;66.20
47636;BME280;33364;50.766;15.338;2023-03-03T03:39:04;95021.88;;;-2.75;72.77
47636;BME280;33364;50.766;15.338;2023-03-03T03:41:31;95022.56;;;-3.24;67.41
47636;BME280;33364;50.766;15.338;2023-03-03T03:43:56;95022.00;;;-3.44;69.67
47636;BME280;33364;50.766;15.338;2023-03-03T03:46:22;95024.31;;;-3.41;69.37
47636;BME280;33364;50.766;15.338;2023-03-03T03:48:48;95016.00;;;-2.94;75.61
47636;BME280;33364;50.766;15.338;2023-03-03T03:51:14;95016.31;;;-3.05;70.42
47636;BME280;33364;50.766;15.338;2023-03-03T03:53:39;95014.38;;;-2.87;69.96
47636;BME280;33364;50.766;15.338;2023-03-03T03:56:05;95011.88;;;-3.21;67.93
47636;BME280;33364;50.766;15.338;2023-03-03T03:58:32;95013.44;;;-3.37;69.56
47636;BME280;33364;50.766;15.338;2023-03-03T04:01:02;95013.94;;;-3.33;73.31
47636;BME280;33364;50.766;15.338;2023-03-03T04:03:28;95014.63;;;-3.23;70.20
47636;BME280;33364;50.766;15.338;2023-03-03T04:05:54;95017.84;;;-3.29;67.34
47636;BME280;33364;50.766;15.338;2023-03-03T04:08:21;95017.25;;;-3.15;73.87
47636;BME280;33364;50.766;15.338;2023-03-03T04:10:46;95011.97;;;-3.39;68.86
47636;BME280;33364;50.766;15.338;2023-03-03T04:13:12;95008.72;;;-3.41;70.17
47636;BME280;33364;50.766;15.338;2023-03-03T04:15:38;95007.41;;;-3.37;69.19
47636;BME280;33364;50.766;15.338;2023-03-03T04:18:04;95010.28;;;-3.48;74.51
47636;BME280;33364;50.766;15.338;2023-03-03T04:20:29;95016.38;;;-3.32;71.14
47636;BME280;33364;50.766;15.338;2023-03-03T04:22:55;95004.59;;;-3.09;73.43
47636;BME280;33364;50.766;15.338;2023-03-03T04:25:21;95014.47;;;-3.21;67.74
47636;BME280;33364;50.766;15.338;2023-03-03T04:27:47;95009.56;;;-3.24;70.89
47636;BME280;33364;50.766;15.338;2023-03-03T04:30:14;95023.06;;;-3.63;67.89
47636;BME280;33364;50.766;15.338;2023-03-03T04:32:41;95014.16;;;-3.61;75.06
47636;BME280;33364;50.766;15.338;2023-03-03T04:35:07;95007.59;;;-3.73;72.61
47636;BME280;33364;50.766;15.338;2023-03-03T04:37:33;95016.13;;;-3.55;69.30
47636;BME280;33364;50.766;15.338;2023-03-03T04:39:59;95029.47;;;-3.49;73.82
47636;BME280;33364;50.766;15.338;2023-03-03T04:42:25;95012.91;;;-3.40;71.49
47636;BME280;33364;50.766;15.338;2023-03-03T04:44:52;95012.97;;;-3.24;73.46
47636;BME280;33364;50.766;15.338;2023-03-03T04:47:18;95012.03;;;-3.15;70.72
47636;BME280;33364;50.766;15.338;2023-03-03T04:49:43;95030.97;;;-2.80;76.38
47636;BME280;33364;50.766;15.338;2023-03-03T04:52:09;95038.84;;;-3.14;69.23
47636;BME280;33364;50.766;15.338;2023-03-03T04:54:35;95026.38;;;-3.02;76.46
47636;BME280;33364;50.766;15.338;2023-03-03T04:57:01;95032.44;;;-2.77;75.01
47636;BME280;33364;50.766;15.338;2023-03-03T04:59:26;95024.50;;;-2.75;74.42
47636;BME280;33364;50.766;15.338;2023-03-03T05:01:52;95023.38;;;-2.65;70.16
47636;BME280;33364;50.766;15.338;2023-03-03T05:04:18;95032.97;;;-2.49;74.37
47636;BME280;33364;50.766;15.338;2023-03-03T05:06:44;95032.47;;;-2.52;71.16
47636;BME280;33364;50.766;15.338;2023-03-03T05:09:09;95028.19;;;-2.86;71.05
47636;BME280;33364;50.766;15.338;2023-03-03T05:11:35;95029.16;;;-3.04;71.35
47636;BME280;33364;50.766;15.338;2023-03-03T05:14:01;95031.25;;;-2.99;71.44
47636;BME280;33364;50.766;15.338;2023-03-03T05:16:28;95034.38;;;-2.87;71.54
47636;BME280;33364;50.766;15.338;2023-03-03T05:18:54;95035.69;;;-2.83;70.81
47636;BME280;33364;50.766;15.338;2023-03-03T05:21:20;95037.66;;;-2.69;73.77
47636;BME280;33364;50.766;15.338;2023-03-03T05:23:45;95039.66;;;-2.38;77.33
47636;BME280;33364;50.766;15.338;2023-03-03T05:26:11;95037.22;;;-2.40;71.76
47636;BME280;33364;50.766;15.338;2023-03-03T05:28:37;95037.06;;;-2.38;73.10
47636;BME280;33364;50.766;15.338;2023-03-03T05:31:03;95039.81;;;-2.40;72.17
47636;BME280;33364;50.766;15.338;2023-03-03T05:33:28;95024.84;;;-2.62;73.09
47636;BME280;33364;50.766;15.338;2023-03-03T05:35:55;95034.94;;;-2.51;77.12
47636;BME280;33364;50.766;15.338;2023-03-03T05:38:22;95035.56;;;-2.41;73.76
47636;BME280;33364;50.766;15.338;2023-03-03T05:40:48;95036.72;;;-2.18;76.79
47636;BME280;33364;50.766;15.338;2023-03-03T05:43:13;95043.03;;;-1.88;77.39
47636;BME280;33364;50.766;15.338;2023-03-03T05:45:39;95041.06;;;-1.61;78.07
47636;BME280;33364;50.766;15.338;2023-03-03T05:48:05;95035.66;;;-1.52;74.76
47636;BME280;33364;50.766;15.338;2023-03-03T05:50:31;95043.31;;;-1.50;74.99
47636;BME280;33364;50.766;15.338;2023-03-03T05:52:57;95044.50;;;-1.77;72.79
47636;BME280;33364;50.766;15.338;2023-03-03T05:55:24;95050.81;;;-1.72;74.03
47636;BME280;33364;50.766;15.338;2023-03-03T05:57:49;95053.59;;;-1.81;74.09
47636;BME280;33364;50.766;15.338;2023-03-03T06:00:16;95056.72;;;-1.78;76.13
47636;BME280;33364;50.766;15.338;2023-03-03T06:02:42;95065.19;;;-1.76;73.32
47636;BME280;33364;50.766;15.338;2023-03-03T06:05:08;95063.06;;;-1.97;72.34
47636;BME280;33364;50.766;15.338;2023-03-03T06:07:35;95060.47;;;-1.89;76.22
47636;BME280;33364;50.766;15.338;2023-03-03T06:10:01;95053.81;;;-1.91;71.95
47636;BME280;33364;50.766;15.338;2023-03-03T06:12:26;95054.25;;;-1.71;75.13
47636;BME280;33364;50.766;15.338;2023-03-03T06:14:52;95063.22;;;-1.74;72.87
47636;BME280;33364;50.766;15.338;2023-03-03T06:17:18;95060.97;;;-1.93;72.78
47636;BME280;33364;50.766;15.338;2023-03-03T06:19:44;95052.84;;;-2.07;71.61
47636;BME280;33364;50.766;15.338;2023-03-03T06:22:11;95058.34;;;-2.10;76.12
47636;BME280;33364;50.766;15.338;2023-03-03T06:24:37;95064.56;;;-2.03;73.90
47636;BME280;33364;50.766;15.338;2023-03-03T06:27:03;95059.34;;;-2.03;73.96
47636;BME280;33364;50.766;15.338;2023-03-03T06:29:29;95042.56;;;-2.00;73.12
47636;BME280;33364;50.766;15.338;2023-03-03T06:31:55;95059.66;;;-1.97;76.81
47636;BME280;33364;50.766;15.338;2023-03-03T06:34:21;95051.69;;;-2.37;73.00
47636;BME280;33364;50.766;15.338;2023-03-03T06:36:47;95059.81;;;-2.56;72.52
47636;BME280;33364;50.766;15.338;2023-03-03T06:39:13;95060.13;;;-2.68;72.78
47636;BME280;33364;50.766;15.338;2023-03-03T06:41:38;95059.41;;;-2.78;72.86
47636;BME280;33364;50.766;15.338;2023-03-03T06:44:05;95066.31;;;-2.52;74.98
47636;BME280;33364;50.766;15.338;2023-03-03T06:46:31;95059.16;;;-2.42;73.94
47636;BME280;33364;50.766;15.338;2023-03-03T06:48:57;95055.44;;;-2.40;72.93
47636;BME280;33364;50.766;15.338;2023-03-03T06:51:56;95055.09;;;-2.36;73.10
47636;BME280;33364;50.766;15.338;2023-03-03T06:54:20;95063.25;;;-2.23;76.64
47636;BME280;33364;50.766;15.338;2023-03-03T06:56:56;95062.59;;;-2.09;73.10
47636;BME280;33364;50.766;15.338;2023-03-03T06:59:23;95062.75;;;-1.94;73.73
47636;BME280;33364;50.766;15.338;2023-03-03T07:01:49;95061.94;;;-1.86;72.10
47636;BME280;33364;50.766;15.338;2023-03-03T07:06:50;95083.06;;;-1.64;71.53
47636;BME280;33364;50.766;15.338;2023-03-03T07:09:26;95070.72;;;-1.79;71.72
47636;BME280;33364;50.766;15.338;2023-03-03T07:12:10;95066.81;;;-1.75;73.29
47636;BME280;33364;50.766;15.338;2023-03-03T07:14:42;95073.13;;;-1.61;71.08
47636;BME280;33364;50.766;15.338;2023-03-03T07:17:15;95063.16;;;-1.49;70.95
47636;BME280;33364;50.766;15.338;2023-03-03T07:19:42;95070.88;;;-1.16;70.77
47636;BME280;33364;50.766;15.338;2023-03-03T07:22:18;95061.72;;;-1.04;70.18
47636;BME280;33364;50.766;15.338;2023-03-03T07:24:46;95072.38;;;-0.82;69.37
47636;BME280;33364;50.766;15.338;2023-03-03T07:27:27;95067.81;;;-0.49;71.04
47636;BME280;33364;50.766;15.338;2023-03-03T07:32:43;95076.63;;;-0.04;68.26
47636;BME280;33364;50.766;15.338;2023-03-03T07:41:02;95093.47;;;1.00;66.59
47636;BME280;33364;50.766;15.338;2023-03-03T07:43:33;95098.34;;;1.18;64.90
47636;BME280;33364;50.766;15.338;2023-03-03T07:48:35;95115.69;;;1.55;62.88
47636;BME280;33364;50.766;15.338;2023-03-03T07:51:21;95111.13;;;2.00;60.27
47636;BME280;33364;50.766;15.338;2023-03-03T07:53:47;95100.81;;;2.20;61.48
47636;BME280;33364;50.766;15.338;2023-03-03T07:56:40;95103.97;;;2.59;60.35
47636;BME280;33364;50.766;15.338;2023-03-03T07:59:17;95109.16;;;2.81;59.04
47636;BME280;33364;50.766;15.338;2023-03-03T08:01:46;95094.94;;;2.97;57.65
47636;BME280;33364;50.766;15.338;2023-03-03T08:06:56;95090.50;;;3.39;59.37
47636;BME280;33364;50.766;15.338;2023-03-03T08:12:01;95086.66;;;4.30;55.95
47636;BME280;33364;50.766;15.338;2023-03-03T08:14:37;95094.78;;;4.62;52.77
47636;BME280;33364;50.766;15.338;2023-03-03T08:17:26;95088.28;;;4.64;52.27
47636;BME280;33364;50.766;15.338;2023-03-03T08:19:55;95088.91;;;4.80;52.21
47636;BME280;33364;50.766;15.338;2023-03-03T08:22:31;95090.84;;;5.11;50.00
47636;BME280;33364;50.766;15.338;2023-03-03T08:24:58;95095.31;;;5.17;50.57
47636;BME280;33364;50.766;15.338;2023-03-03T08:27:24;95097.75;;;5.12;48.92
47636;BME280;33364;50.766;15.338;2023-03-03T08:29:49;95095.94;;;5.06;46.37
47636;BME280;33364;50.766;15.338;2023-03-03T08:32:15;95090.00;;;5.30;47.23
47636;BME280;33364;50.766;15.338;2023-03-03T08:34:40;95086.28;;;5.90;45.03
47636;BME280;33364;50.766;15.338;2023-03-03T08:37:06;95091.06;;;5.68;42.28
47636;BME280;33364;50.766;15.338;2023-03-03T08:39:32;95089.88;;;6.09;42.46
47636;BME280;33364;50.766;15.338;2023-03-03T08:41:58;95087.81;;;6.11;41.00
47636;BME280;33364;50.766;15.338;2023-03-03T08:44:24;95099.28;;;6.30;40.58
47636;BME280;33364;50.766;15.338;2023-03-03T08:46:50;95091.69;;;6.09;39.69
47636;BME280;33364;50.766;15.338;2023-03-03T08:49:15;95083.88;;;6.27;40.37
47636;BME280;33364;50.766;15.338;2023-03-03T08:51:41;95082.53;;;6.68;38.63
47636;BME280;33364;50.766;15.338;2023-03-03T08:54:07;95087.25;;;6.85;38.27
47636;BME280;33364;50.766;15.338;2023-03-03T08:56:33;95074.88;;;6.85;36.77
47636;BME280;33364;50.766;15.338;2023-03-03T08:58:58;95078.81;;;6.76;37.79
47636;BME280;33364;50.766;15.338;2023-03-03T09:01:24;95077.91;;;7.07;37.00
47636;BME280;33364;50.766;15.338;2023-03-03T09:03:50;95079.59;;;7.20;37.00
47636;BME280;33364;50.766;15.338;2023-03-03T09:06:16;95087.75;;;7.37;37.00
47636;BME280;33364;50.766;15.338;2023-03-03T09:08:41;95078.19;;;7.17;37.07
47636;BME280;33364;50.766;15.338;2023-03-03T09:11:12;95079.47;;;7.52;35.80
47636;BME280;33364;50.766;15.338;2023-03-03T09:13:38;95074.38;;;7.69;35.11
47636;BME280;33364;50.766;15.338;2023-03-03T09:16:14;95063.53;;;7.89;34.78
47636;BME280;33364;50.766;15.338;2023-03-03T09:18:40;95066.16;;;8.19;35.45
47636;BME280;33364;50.766;15.338;2023-03-03T09:21:18;95071.69;;;7.87;34.99
47636;BME280;33364;50.766;15.338;2023-03-03T09:23:52;95071.16;;;7.97;35.08
47636;BME280;33364;50.766;15.338;2023-03-03T09:28:58;95067.63;;;8.45;33.09
47636;BME280;33364;50.766;15.338;2023-03-03T09:31:55;95072.84;;;8.64;33.39
47636;BME280;33364;50.766;15.338;2023-03-03T09:34:39;95077.78;;;8.60;32.62
47636;BME280;33364;50.766;15.338;2023-03-03T09:37:22;95076.19;;;8.83;33.21
47636;BME280;33364;50.766;15.338;2023-03-03T09:39:53;95076.41;;;9.17;32.34
47636;BME280;33364;50.766;15.338;2023-03-03T09:55:45;95086.78;;;8.83;27.29
47636;BME280;33364;50.766;15.338;2023-03-03T10:06:31;95093.72;;;9.72;27.43
47636;BME280;33364;50.766;15.338;2023-03-03T10:09:32;95103.72;;;9.17;28.20
47636;BME280;33364;50.766;15.338;2023-03-03T10:20:37;95104.69;;;10.04;34.23
47636;BME280;33364;50.766;15.338;2023-03-03T10:29:14;95105.06;;;10.37;35.00
47636;BME280;33364;50.766;15.338;2023-03-03T10:31:59;95107.84;;;10.30;34.79
47636;BME280;33364;50.766;15.338;2023-03-03T10:34:50;95119.38;;;10.07;35.82
47636;BME280;33364;50.766;15.338;2023-03-03T10:37:33;95108.59;;;10.42;36.32
47636;BME280;33364;50.766;15.338;2023-03-03T10:46:01;95115.03;;;10.18;35.97
47636;BME280;33364;50.766;15.338;2023-03-03T10:51:30;95114.75;;;10.02;35.04
47636;BME280;33364;50.766;15.338;2023-03-03T10:57:02;95115.88;;;10.64;31.83
47636;BME280;33364;50.766;15.338;2023-03-03T11:02:02;95104.06;;;11.28;30.91
47636;BME280;33364;50.766;15.338;2023-03-03T11:07:38;95103.84;;;11.90;31.10
47636;BME280;33364;50.766;15.338;2023-03-03T11:20:51;95098.41;;;10.85;30.75
47636;BME280;33364;50.766;15.338;2023-03-03T11:31:46;95092.22;;;11.35;32.64
47636;BME280;33364;50.766;15.338;2023-03-03T11:34:55;95088.53;;;11.81;32.93
47636;BME280;33364;50.766;15.338;2023-03-03T11:37:39;95097.06;;;11.38;31.13
47636;BME280;33364;50.766;15.338;2023-03-03T11:40:20;95087.56;;;11.65;31.27
47636;BME280;33364;50.766;15.338;2023-03-03T11:43:02;95073.25;;;11.49;29.69
47636;BME280;33364;50.766;15.338;2023-03-03T11:45:37;95069.97;;;11.42;29.05
47636;BME280;33364;50.766;15.338;2023-03-03T11:48:15;95073.34;;;11.15;28.04
47636;BME280;33364;50.766;15.338;2023-03-03T11:50:58;95079.94;;;11.12;27.14
47636;BME280;33364;50.766;15.338;2023-03-03T11:53:53;95085.13;;;11.02;26.09
47636;BME280;33364;50.766;15.338;2023-03-03T11:56:39;95078.16;;;10.04;26.97
47636;BME280;33364;50.766;15.338;2023-03-03T12:01:48;95082.78;;;10.55;29.35
47636;BME280;33364;50.766;15.338;2023-03-03T12:07:08;95071.75;;;10.17;28.48
47636;BME280;33364;50.766;15.338;2023-03-03T12:12:24;95077.91;;;10.35;29.33
47636;BME280;33364;50.766;15.338;2023-03-03T12:26:07;95069.41;;;9.92;28.57
47636;BME280;33364;50.766;15.338;2023-03-03T12:28:37;95068.00;;;9.72;28.14
47636;BME280;33364;50.766;15.338;2023-03-03T12:31:18;95065.09;;;9.74;28.00
47636;BME280;33364;50.766;15.338;2023-03-03T12:37:02;95050.34;;;10.07;28.69
47636;BME280;33364;50.766;15.338;2023-03-03T12:47:21;95052.84;;;10.31;30.28
47636;BME280;33364;50.766;15.338;2023-03-03T12:58:55;95042.28;;;10.64;28.49
47636;BME280;33364;50.766;15.338;2023-03-03T13:01:46;95039.97;;;10.51;29.85
47636;BME280;33364;50.766;15.338;2023-03-03T13:07:05;95035.69;;;10.21;28.38
47636;BME280;33364;50.766;15.338;2023-03-03T13:15:12;95037.78;;;10.48;33.27
47636;BME280;33364;50.766;15.338;2023-03-03T13:18:12;95039.38;;;10.49;35.16
47636;BME280;33364;50.766;15.338;2023-03-03T13:20:52;95041.63;;;10.74;35.37
47636;BME280;33364;50.766;15.338;2023-03-03T13:26:42;95052.50;;;10.73;34.70
47636;BME280;33364;50.766;15.338;2023-03-03T13:29:12;95044.44;;;10.51;37.40
47636;BME280;33364;50.766;15.338;2023-03-03T13:31:47;95049.41;;;10.30;38.18
47636;BME280;33364;50.766;15.338;2023-03-03T13:34:22;95044.28;;;10.11;38.79
47636;BME280;33364;50.766;15.338;2023-03-03T13:36:57;95044.25;;;9.95;39.96
47636;BME280;33364;50.766;15.338;2023-03-03T13:39:28;95045.25;;;9.77;40.46
47636;BME280;33364;50.766;15.338;2023-03-03T13:42:02;95045.03;;;9.37;39.12
47636;BME280;33364;50.766;15.338;2023-03-03T13:44:39;95047.03;;;9.59;37.58
47636;BME280;33364;50.766;15.338;2023-03-03T13:52:31;95040.00;;;9.53;40.33
47636;BME280;33364;50.766;15.338;2023-03-03T13:57:54;95042.78;;;9.58;38.52
47636;BME280;33364;50.766;15.338;2023-03-03T14:06:26;95028.25;;;8.96;41.25
47636;BME280;33364;50.766;15.338;2023-03-03T14:11:53;95036.75;;;9.10;41.74
47636;BME280;33364;50.766;15.338;2023-03-03T14:17:37;95031.13;;;9.07;42.67
47636;BME280;33364;50.766;15.338;2023-03-03T14:23:03;95039.19;;;9.12;42.68
47636;BME280;33364;50.766;15.338;2023-03-03T14:25:51;95032.28;;;9.11;42.68
47636;BME280;33364;50.766;15.338;2023-03-03T14:28:22;95033.66;;;9.02;41.79
47636;BME280;33364;50.766;15.338;2023-03-03T14:30:52;95037.34;;;9.00;44.41
47636;BME280;33364;50.766;15.338;2023-03-03T14:33:20;95034.47;;;9.02;43.30
47636;BME280;33364;50.766;15.338;2023-03-03T14:38:43;95027.44;;;8.84;41.79
47636;BME280;33364;50.766;15.338;2023-03-03T14:41:14;95028.50;;;8.95;41.05
47636;BME280;33364;50.766;15.338;2023-03-03T14:44:29;95027.13;;;8.69;41.67
47636;BME280;33364;50.766;15.338;2023-03-03T14:46:38;95026.53;;;8.55;42.62
47636;BME280;33364;50.766;15.338;2023-03-03T14:49:27;95020.06;;;8.39;42.66
47636;BME280;33364;50.766;15.338;2023-03-03T14:54:40;95018.34;;;7.60;46.80
47636;BME280;33364;50.766;15.338;2023-03-03T15:02:42;95028.19;;;6.60;44.54
47636;BME280;33364;50.766;15.338;2023-03-03T15:05:24;95033.84;;;6.39;48.56
47636;BME280;33364;50.766;15.338;2023-03-03T15:10:35;95040.75;;;5.76;50.02
47636;BME280;33364;50.766;15.338;2023-03-03T15:13:32;95036.63;;;5.87;51.25
47636;BME280;33364;50.766;15.338;2023-03-03T15:18:29;95034.38;;;6.22;48.52
47636;BME280;33364;50.766;15.338;2023-03-03T15:21:12;95036.53;;;6.32;48.94
47636;BME280;33364;50.766;15.338;2023-03-03T15:26:29;95024.38;;;6.31;50.38
47636;BME280;33364;50.766;15.338;2023-03-03T15:29:16;95031.41;;;6.37;49.89
47636;BME280;33364;50.766;15.338;2023-03-03T15:45:15;95043.34;;;5.38;50.75
47636;BME280;33364;50.766;15.338;2023-03-03T15:56:19;95051.63;;;4.89;56.36
47636;BME280;33364;50.766;15.338;2023-03-03T15:59:23;95052.72;;;5.27;57.95
47636;BME280;33364;50.766;15.338;2023-03-03T16:02:41;95047.44;;;5.33;52.28
47636;BME280;33364;50.766;15.338;2023-03-03T16:04:52;95032.19;;;4.77;55.47
47636;BME280;33364;50.766;15.338;2023-03-03T16:07:33;95040.72;;;4.79;55.58
47636;BME280;33364;50.766;15.338;2023-03-03T16:16:09;95038.03;;;4.92;56.29
47636;BME280;33364;50.766;15.338;2023-03-03T16:21:28;95039.25;;;4.90;52.79
47636;BME280;33364;50.766;15.338;2023-03-03T16:24:23;95039.47;;;4.82;58.81
47636;BME280;33364;50.766;15.338;2023-03-03T16:29:34;95053.69;;;4.20;53.40
47636;BME280;33364;50.766;15.338;2023-03-03T16:32:13;95051.47;;;3.97;59.33
47636;BME280;33364;50.766;15.338;2023-03-03T16:35:04;95053.81;;;3.72;55.62
47636;BME280;33364;50.766;15.338;2023-03-03T16:40:14;95062.84;;;3.49;54.92
47636;BME280;33364;50.766;15.338;2023-03-03T16:42:42;95062.38;;;2.91;56.51
47636;BME280;33364;50.766;15.338;2023-03-03T16:45:27;95062.41;;;3.39;58.43
47636;BME280;33364;50.766;15.338;2023-03-03T16:51:02;95061.50;;;3.67;54.53
47636;BME280;33364;50.766;15.338;2023-03-03T16:56:13;95067.13;;;3.09;60.01
47636;BME280;33364;50.766;15.338;2023-03-03T17:04:01;95073.16;;;3.44;59.85
47636;BME280;33364;50.766;15.338;2023-03-03T17:06:36;95072.97;;;3.53;63.33
47636;BME280;33364;50.766;15.338;2023-03-03T17:15:02;95083.09;;;3.62;63.73
47636;BME280;33364;50.766;15.338;2023-03-03T17:17:41;95091.88;;;3.35;55.41
47636;BME280;33364;50.766;15.338;2023-03-03T17:20:13;95090.66;;;2.89;62.67
47636;BME280;33364;50.766;15.338;2023-03-03T17:36:32;95092.16;;;2.20;63.44